Startpagina
METAR-TAF:

METAR-TAF

Vliegvelden :

Irene, Zuid-Afrika

breedte: 25-54-36S, lengte: 28-12-40E, hoogte: 1523 m

Actueel weer

Dit bericht is 13 uur en het 57 minuten geleden gemaakt, om 07:50 UTC
Wind 8 kt uit het zuidwesten
Temperatuur 19°C
Vochtigheid 12%
Druk 1026 hPa
Zicht 10 km of meer
geen wolken onder 1500 m en geen cumulonimbus

METAR: FAIR 240750Z 22008KT CAVOK 19/M11 Q1026

Tijdstip: 23:47 (21:47 UTC)


TAF: ontbreekt

Waarnemingen en weersverwachtingen van meer dan 4000 vliegvelden (METAR en TAF).

De beschikbare stations zijn de gele en rode punten op de kaart.

Ga met uw muis naar het station om de naam te zien.

Klik dan om waarnemingen en weersverwachtingen te zien.

kaart wijzigen: klik op de groene knoppen met een zwart kruis om in te zoomen, op de groene knop met een streepje om uit te zoomen of op de groene pijlen voor aangrenzende kaarten.


METAR-TAF: